sensor_id;sensor_type;location;lat;lon;timestamp;P1;durP1;ratioP1;P2;durP2;ratioP2
419;SDS011;42600;54.408;13.016;2024-02-21T00:02:18;4.80;;;2.30;;
419;SDS011;42600;54.408;13.016;2024-02-21T00:04:44;21.40;;;2.93;;
419;SDS011;42600;54.408;13.016;2024-02-21T00:07:11;26.87;;;3.67;;
419;SDS011;42600;54.408;13.016;2024-02-21T00:09:39;4.93;;;3.30;;
419;SDS011;42600;54.408;13.016;2024-02-21T00:12:07;10.20;;;3.27;;
419;SDS011;42600;54.408;13.016;2024-02-21T00:14:34;6.53;;;1.73;;
419;SDS011;42600;54.408;13.016;2024-02-21T00:17:00;6.03;;;3.33;;
419;SDS011;42600;54.408;13.016;2024-02-21T00:19:27;11.50;;;3.57;;
419;SDS011;42600;54.408;13.016;2024-02-21T00:21:53;6.10;;;4.00;;
419;SDS011;42600;54.408;13.016;2024-02-21T00:24:20;4.83;;;3.10;;
419;SDS011;42600;54.408;13.016;2024-02-21T00:26:51;14.40;;;7.87;;
419;SDS011;42600;54.408;13.016;2024-02-21T00:29:18;13.53;;;4.50;;
419;SDS011;42600;54.408;13.016;2024-02-21T00:31:44;17.00;;;4.53;;
419;SDS011;42600;54.408;13.016;2024-02-21T00:34:11;10.43;;;3.47;;
419;SDS011;42600;54.408;13.016;2024-02-21T00:36:38;6.53;;;5.03;;
419;SDS011;42600;54.408;13.016;2024-02-21T00:39:04;16.73;;;4.60;;
419;SDS011;42600;54.408;13.016;2024-02-21T00:41:31;30.80;;;5.70;;
419;SDS011;42600;54.408;13.016;2024-02-21T00:43:59;15.30;;;4.37;;
419;SDS011;42600;54.408;13.016;2024-02-21T00:46:26;10.20;;;3.13;;
419;SDS011;42600;54.408;13.016;2024-02-21T00:48:52;53.23;;;3.00;;
419;SDS011;42600;54.408;13.016;2024-02-21T00:51:19;11.80;;;3.90;;
419;SDS011;42600;54.408;13.016;2024-02-21T00:53:45;3.40;;;2.33;;
419;SDS011;42600;54.408;13.016;2024-02-21T00:56:12;19.30;;;1.93;;
419;SDS011;42600;54.408;13.016;2024-02-21T00:58:38;17.23;;;5.17;;
419;SDS011;42600;54.408;13.016;2024-02-21T01:01:07;3.70;;;2.63;;
419;SDS011;42600;54.408;13.016;2024-02-21T01:03:33;6.83;;;3.93;;
419;SDS011;42600;54.408;13.016;2024-02-21T01:06:00;13.33;;;4.40;;
419;SDS011;42600;54.408;13.016;2024-02-21T01:08:26;9.50;;;3.13;;
419;SDS011;42600;54.408;13.016;2024-02-21T01:10:53;4.73;;;1.97;;
419;SDS011;42600;54.408;13.016;2024-02-21T01:13:19;11.83;;;3.70;;
419;SDS011;42600;54.408;13.016;2024-02-21T01:15:46;7.70;;;3.63;;
419;SDS011;42600;54.408;13.016;2024-02-21T01:18:14;7.77;;;2.43;;
419;SDS011;42600;54.408;13.016;2024-02-21T01:20:40;18.37;;;3.97;;
419;SDS011;42600;54.408;13.016;2024-02-21T01:23:07;4.67;;;2.57;;
419;SDS011;42600;54.408;13.016;2024-02-21T01:25:34;11.77;;;4.10;;
419;SDS011;42600;54.408;13.016;2024-02-21T01:28:00;13.57;;;3.30;;
419;SDS011;42600;54.408;13.016;2024-02-21T01:30:27;7.13;;;2.40;;
419;SDS011;42600;54.408;13.016;2024-02-21T01:32:53;25.87;;;5.50;;
419;SDS011;42600;54.408;13.016;2024-02-21T01:35:21;5.20;;;2.67;;
419;SDS011;42600;54.408;13.016;2024-02-21T01:37:48;5.07;;;2.53;;
419;SDS011;42600;54.408;13.016;2024-02-21T01:40:16;23.53;;;5.20;;
419;SDS011;42600;54.408;13.016;2024-02-21T01:42:43;14.20;;;4.43;;
419;SDS011;42600;54.408;13.016;2024-02-21T01:45:10;8.30;;;4.47;;
419;SDS011;42600;54.408;13.016;2024-02-21T01:47:36;3.23;;;1.97;;
419;SDS011;42600;54.408;13.016;2024-02-21T01:50:03;12.33;;;3.50;;
419;SDS011;42600;54.408;13.016;2024-02-21T01:52:32;12.97;;;4.33;;
419;SDS011;42600;54.408;13.016;2024-02-21T01:55:00;6.83;;;3.47;;
419;SDS011;42600;54.408;13.016;2024-02-21T01:57:27;7.97;;;3.03;;
419;SDS011;42600;54.408;13.016;2024-02-21T01:59:54;2.87;;;2.67;;
419;SDS011;42600;54.408;13.016;2024-02-21T02:02:21;18.70;;;8.07;;
419;SDS011;42600;54.408;13.016;2024-02-21T02:04:48;7.07;;;2.43;;
419;SDS011;42600;54.408;13.016;2024-02-21T02:07:15;13.77;;;3.90;;
419;SDS011;42600;54.408;13.016;2024-02-21T02:09:43;12.10;;;4.30;;
419;SDS011;42600;54.408;13.016;2024-02-21T02:12:09;8.67;;;4.27;;
419;SDS011;42600;54.408;13.016;2024-02-21T02:14:36;11.60;;;4.83;;
419;SDS011;42600;54.408;13.016;2024-02-21T02:17:03;16.57;;;5.40;;
419;SDS011;42600;54.408;13.016;2024-02-21T02:19:30;3.37;;;2.13;;
419;SDS011;42600;54.408;13.016;2024-02-21T02:21:58;4.67;;;2.30;;
419;SDS011;42600;54.408;13.016;2024-02-21T02:24:31;15.27;;;5.43;;
419;SDS011;42600;54.408;13.016;2024-02-21T02:26:57;12.40;;;5.57;;
419;SDS011;42600;54.408;13.016;2024-02-21T02:29:24;4.87;;;2.67;;
419;SDS011;42600;54.408;13.016;2024-02-21T02:31:51;16.10;;;3.73;;
419;SDS011;42600;54.408;13.016;2024-02-21T02:34:17;15.07;;;5.20;;
419;SDS011;42600;54.408;13.016;2024-02-21T02:36:44;29.83;;;4.27;;
419;SDS011;42600;54.408;13.016;2024-02-21T02:39:11;12.50;;;3.77;;
419;SDS011;42600;54.408;13.016;2024-02-21T02:41:39;14.37;;;5.30;;
419;SDS011;42600;54.408;13.016;2024-02-21T02:44:05;8.53;;;3.47;;
419;SDS011;42600;54.408;13.016;2024-02-21T02:46:32;13.93;;;4.97;;
419;SDS011;42600;54.408;13.016;2024-02-21T02:48:59;6.20;;;2.83;;
419;SDS011;42600;54.408;13.016;2024-02-21T02:51:25;10.63;;;5.37;;
419;SDS011;42600;54.408;13.016;2024-02-21T02:53:52;7.60;;;3.70;;
419;SDS011;42600;54.408;13.016;2024-02-21T02:56:19;15.17;;;6.07;;
419;SDS011;42600;54.408;13.016;2024-02-21T02:58:46;7.43;;;3.63;;
419;SDS011;42600;54.408;13.016;2024-02-21T03:01:13;8.70;;;3.97;;
419;SDS011;42600;54.408;13.016;2024-02-21T03:03:40;14.10;;;5.80;;
419;SDS011;42600;54.408;13.016;2024-02-21T03:06:06;14.47;;;4.63;;
419;SDS011;42600;54.408;13.016;2024-02-21T03:08:33;6.00;;;2.60;;
419;SDS011;42600;54.408;13.016;2024-02-21T03:10:59;6.50;;;2.50;;
419;SDS011;42600;54.408;13.016;2024-02-21T03:13:26;9.73;;;5.07;;
419;SDS011;42600;54.408;13.016;2024-02-21T03:15:54;9.47;;;4.20;;
419;SDS011;42600;54.408;13.016;2024-02-21T03:18:21;16.20;;;5.10;;
419;SDS011;42600;54.408;13.016;2024-02-21T03:20:47;14.47;;;5.20;;
419;SDS011;42600;54.408;13.016;2024-02-21T03:23:14;9.23;;;3.70;;
419;SDS011;42600;54.408;13.016;2024-02-21T03:25:40;11.67;;;2.50;;
419;SDS011;42600;54.408;13.016;2024-02-21T03:28:07;52.10;;;3.13;;
419;SDS011;42600;54.408;13.016;2024-02-21T03:30:33;11.73;;;4.10;;
419;SDS011;42600;54.408;13.016;2024-02-21T03:33:02;17.07;;;4.30;;
419;SDS011;42600;54.408;13.016;2024-02-21T03:35:29;18.80;;;6.20;;
419;SDS011;42600;54.408;13.016;2024-02-21T03:37:55;12.87;;;3.63;;
419;SDS011;42600;54.408;13.016;2024-02-21T03:40:22;4.40;;;1.63;;
419;SDS011;42600;54.408;13.016;2024-02-21T03:42:48;11.00;;;3.47;;
419;SDS011;42600;54.408;13.016;2024-02-21T03:45:15;27.40;;;9.00;;
419;SDS011;42600;54.408;13.016;2024-02-21T03:47:41;3.80;;;2.73;;
419;SDS011;42600;54.408;13.016;2024-02-21T03:50:10;27.87;;;5.47;;
419;SDS011;42600;54.408;13.016;2024-02-21T03:52:36;14.30;;;5.60;;
419;SDS011;42600;54.408;13.016;2024-02-21T03:55:03;10.47;;;4.23;;
419;SDS011;42600;54.408;13.016;2024-02-21T03:57:30;16.43;;;7.30;;
419;SDS011;42600;54.408;13.016;2024-02-21T03:59:56;8.90;;;5.67;;
419;SDS011;42600;54.408;13.016;2024-02-21T04:02:23;13.77;;;6.50;;
419;SDS011;42600;54.408;13.016;2024-02-21T04:04:49;9.00;;;3.57;;
419;SDS011;42600;54.408;13.016;2024-02-21T04:07:17;9.53;;;6.33;;
419;SDS011;42600;54.408;13.016;2024-02-21T04:09:44;12.37;;;4.70;;
419;SDS011;42600;54.408;13.016;2024-02-21T04:12:10;13.97;;;6.37;;
419;SDS011;42600;54.408;13.016;2024-02-21T04:14:37;15.23;;;3.80;;
419;SDS011;42600;54.408;13.016;2024-02-21T04:17:04;17.10;;;5.57;;
419;SDS011;42600;54.408;13.016;2024-02-21T04:19:30;5.30;;;4.60;;
419;SDS011;42600;54.408;13.016;2024-02-21T04:21:58;6.87;;;3.27;;
419;SDS011;42600;54.408;13.016;2024-02-21T04:24:26;3.87;;;2.27;;
419;SDS011;42600;54.408;13.016;2024-02-21T04:26:53;13.70;;;4.63;;
419;SDS011;42600;54.408;13.016;2024-02-21T04:29:19;6.80;;;3.60;;
419;SDS011;42600;54.408;13.016;2024-02-21T04:31:46;9.27;;;4.10;;
419;SDS011;42600;54.408;13.016;2024-02-21T04:34:12;6.17;;;3.37;;
419;SDS011;42600;54.408;13.016;2024-02-21T04:36:39;9.53;;;3.33;;
419;SDS011;42600;54.408;13.016;2024-02-21T04:39:05;12.10;;;4.20;;
419;SDS011;42600;54.408;13.016;2024-02-21T04:41:33;8.90;;;3.93;;
419;SDS011;42600;54.408;13.016;2024-02-21T04:44:00;10.27;;;3.20;;
419;SDS011;42600;54.408;13.016;2024-02-21T04:46:28;12.40;;;2.67;;
419;SDS011;42600;54.408;13.016;2024-02-21T04:48:55;12.73;;;5.70;;
419;SDS011;42600;54.408;13.016;2024-02-21T04:51:21;10.83;;;4.23;;
419;SDS011;42600;54.408;13.016;2024-02-21T04:53:48;12.03;;;7.87;;
419;SDS011;42600;54.408;13.016;2024-02-21T04:56:14;10.63;;;4.30;;
419;SDS011;42600;54.408;13.016;2024-02-21T04:58:42;14.93;;;4.57;;
419;SDS011;42600;54.408;13.016;2024-02-21T05:01:09;7.33;;;2.60;;
419;SDS011;42600;54.408;13.016;2024-02-21T05:03:35;17.93;;;4.73;;
419;SDS011;42600;54.408;13.016;2024-02-21T05:06:02;13.17;;;4.67;;
419;SDS011;42600;54.408;13.016;2024-02-21T05:08:29;12.47;;;4.20;;
419;SDS011;42600;54.408;13.016;2024-02-21T05:10:56;8.57;;;3.37;;
419;SDS011;42600;54.408;13.016;2024-02-21T05:13:22;13.93;;;3.87;;
419;SDS011;42600;54.408;13.016;2024-02-21T05:15:50;28.63;;;5.10;;
419;SDS011;42600;54.408;13.016;2024-02-21T05:18:17;9.80;;;4.53;;
419;SDS011;42600;54.408;13.016;2024-02-21T05:20:44;12.83;;;5.40;;
419;SDS011;42600;54.408;13.016;2024-02-21T05:23:11;3.37;;;2.30;;
419;SDS011;42600;54.408;13.016;2024-02-21T05:25:37;9.03;;;5.13;;
419;SDS011;42600;54.408;13.016;2024-02-21T05:28:04;2.90;;;2.77;;
419;SDS011;42600;54.408;13.016;2024-02-21T05:30:31;7.27;;;2.97;;
419;SDS011;42600;54.408;13.016;2024-02-21T05:32:59;7.40;;;1.83;;
419;SDS011;42600;54.408;13.016;2024-02-21T05:35:30;9.93;;;5.00;;
419;SDS011;42600;54.408;13.016;2024-02-21T05:37:56;16.10;;;4.10;;
419;SDS011;42600;54.408;13.016;2024-02-21T05:40:24;16.20;;;5.33;;
419;SDS011;42600;54.408;13.016;2024-02-21T05:42:51;7.03;;;3.23;;
419;SDS011;42600;54.408;13.016;2024-02-21T05:45:17;6.30;;;1.57;;
419;SDS011;42600;54.408;13.016;2024-02-21T05:47:44;18.63;;;3.70;;
419;SDS011;42600;54.408;13.016;2024-02-21T05:50:12;9.77;;;1.43;;
419;SDS011;42600;54.408;13.016;2024-02-21T05:52:39;13.80;;;6.00;;
419;SDS011;42600;54.408;13.016;2024-02-21T05:55:06;5.23;;;1.80;;
419;SDS011;42600;54.408;13.016;2024-02-21T05:57:33;11.47;;;2.63;;
419;SDS011;42600;54.408;13.016;2024-02-21T06:00:00;2.70;;;1.83;;
419;SDS011;42600;54.408;13.016;2024-02-21T06:02:30;3.77;;;1.60;;
419;SDS011;42600;54.408;13.016;2024-02-21T06:04:56;16.33;;;3.93;;
419;SDS011;42600;54.408;13.016;2024-02-21T06:07:24;3.83;;;2.10;;
419;SDS011;42600;54.408;13.016;2024-02-21T06:09:51;17.37;;;2.67;;
419;SDS011;42600;54.408;13.016;2024-02-21T06:12:17;4.30;;;2.20;;
419;SDS011;42600;54.408;13.016;2024-02-21T06:14:44;3.47;;;1.53;;
419;SDS011;42600;54.408;13.016;2024-02-21T06:17:11;3.93;;;1.80;;
419;SDS011;42600;54.408;13.016;2024-02-21T06:19:39;4.60;;;3.90;;
419;SDS011;42600;54.408;13.016;2024-02-21T06:22:06;8.57;;;4.07;;
419;SDS011;42600;54.408;13.016;2024-02-21T06:24:35;10.53;;;3.23;;
419;SDS011;42600;54.408;13.016;2024-02-21T06:27:02;1.90;;;0.80;;
419;SDS011;42600;54.408;13.016;2024-02-21T06:29:29;5.03;;;2.63;;
419;SDS011;42600;54.408;13.016;2024-02-21T06:31:55;2.90;;;2.13;;
419;SDS011;42600;54.408;13.016;2024-02-21T06:34:22;8.30;;;3.70;;
419;SDS011;42600;54.408;13.016;2024-02-21T06:36:49;4.23;;;2.47;;
419;SDS011;42600;54.408;13.016;2024-02-21T06:39:15;8.40;;;1.33;;
419;SDS011;42600;54.408;13.016;2024-02-21T06:41:43;2.00;;;1.20;;
419;SDS011;42600;54.408;13.016;2024-02-21T06:44:10;4.80;;;2.50;;
419;SDS011;42600;54.408;13.016;2024-02-21T06:46:36;3.93;;;2.13;;
419;SDS011;42600;54.408;13.016;2024-02-21T06:49:03;7.63;;;2.13;;
419;SDS011;42600;54.408;13.016;2024-02-21T06:51:30;1.87;;;0.70;;
419;SDS011;42600;54.408;13.016;2024-02-21T06:53:56;2.30;;;0.87;;
419;SDS011;42600;54.408;13.016;2024-02-21T06:56:23;5.10;;;2.30;;
419;SDS011;42600;54.408;13.016;2024-02-21T06:58:54;9.70;;;0.80;;
419;SDS011;42600;54.408;13.016;2024-02-21T07:01:21;1.00;;;0.90;;
419;SDS011;42600;54.408;13.016;2024-02-21T07:03:48;0.70;;;0.30;;
419;SDS011;42600;54.408;13.016;2024-02-21T07:06:14;0.77;;;0.40;;
419;SDS011;42600;54.408;13.016;2024-02-21T07:08:41;1.73;;;1.37;;
419;SDS011;42600;54.408;13.016;2024-02-21T07:11:08;11.93;;;1.53;;
419;SDS011;42600;54.408;13.016;2024-02-21T07:13:34;3.13;;;2.10;;
419;SDS011;42600;54.408;13.016;2024-02-21T07:16:02;1.87;;;1.10;;
419;SDS011;42600;54.408;13.016;2024-02-21T07:18:29;3.10;;;1.03;;
419;SDS011;42600;54.408;13.016;2024-02-21T07:20:56;5.70;;;1.33;;
419;SDS011;42600;54.408;13.016;2024-02-21T07:23:23;15.80;;;1.30;;
419;SDS011;42600;54.408;13.016;2024-02-21T07:25:50;1.00;;;0.80;;
419;SDS011;42600;54.408;13.016;2024-02-21T07:28:16;5.50;;;1.47;;
419;SDS011;42600;54.408;13.016;2024-02-21T07:30:43;4.07;;;0.57;;
419;SDS011;42600;54.408;13.016;2024-02-21T07:33:11;0.80;;;0.40;;
419;SDS011;42600;54.408;13.016;2024-02-21T07:35:38;2.90;;;0.83;;
419;SDS011;42600;54.408;13.016;2024-02-21T07:38:06;2.60;;;1.30;;
419;SDS011;42600;54.408;13.016;2024-02-21T07:40:33;0.70;;;0.30;;
419;SDS011;42600;54.408;13.016;2024-02-21T07:43:00;6.83;;;1.60;;
419;SDS011;42600;54.408;13.016;2024-02-21T07:45:27;1.37;;;1.00;;
419;SDS011;42600;54.408;13.016;2024-02-21T07:47:53;1.17;;;0.73;;
419;SDS011;42600;54.408;13.016;2024-02-21T07:50:21;0.70;;;0.30;;
419;SDS011;42600;54.408;13.016;2024-02-21T07:52:48;0.90;;;0.50;;
419;SDS011;42600;54.408;13.016;2024-02-21T07:55:14;0.80;;;0.40;;
419;SDS011;42600;54.408;13.016;2024-02-21T07:57:41;5.13;;;0.90;;
419;SDS011;42600;54.408;13.016;2024-02-21T08:00:07;1.13;;;0.83;;
419;SDS011;42600;54.408;13.016;2024-02-21T08:02:40;1.93;;;0.80;;
419;SDS011;42600;54.408;13.016;2024-02-21T08:05:07;0.80;;;0.50;;
419;SDS011;42600;54.408;13.016;2024-02-21T08:07:35;0.70;;;0.40;;
419;SDS011;42600;54.408;13.016;2024-02-21T08:10:02;0.80;;;0.40;;
419;SDS011;42600;54.408;13.016;2024-02-21T08:12:29;1.03;;;0.50;;
419;SDS011;42600;54.408;13.016;2024-02-21T08:14:57;2.27;;;1.40;;
419;SDS011;42600;54.408;13.016;2024-02-21T08:17:24;0.80;;;0.57;;
419;SDS011;42600;54.408;13.016;2024-02-21T08:19:50;0.90;;;0.60;;
419;SDS011;42600;54.408;13.016;2024-02-21T08:22:17;0.80;;;0.40;;
419;SDS011;42600;54.408;13.016;2024-02-21T08:24:45;0.80;;;0.40;;
419;SDS011;42600;54.408;13.016;2024-02-21T08:27:12;6.77;;;1.23;;
419;SDS011;42600;54.408;13.016;2024-02-21T08:29:38;0.80;;;0.40;;
419;SDS011;42600;54.408;13.016;2024-02-21T08:32:05;1.17;;;0.60;;
419;SDS011;42600;54.408;13.016;2024-02-21T08:34:32;2.60;;;0.93;;
419;SDS011;42600;54.408;13.016;2024-02-21T08:36:59;7.80;;;1.00;;
419;SDS011;42600;54.408;13.016;2024-02-21T08:39:26;1.47;;;1.07;;
419;SDS011;42600;54.408;13.016;2024-02-21T08:41:55;0.80;;;0.50;;
419;SDS011;42600;54.408;13.016;2024-02-21T08:44:22;8.23;;;3.07;;
419;SDS011;42600;54.408;13.016;2024-02-21T08:46:49;17.67;;;0.80;;
419;SDS011;42600;54.408;13.016;2024-02-21T08:49:15;2.20;;;1.00;;
419;SDS011;42600;54.408;13.016;2024-02-21T08:51:42;5.23;;;0.53;;
419;SDS011;42600;54.408;13.016;2024-02-21T08:54:09;0.80;;;0.50;;
419;SDS011;42600;54.408;13.016;2024-02-21T08:56:35;0.90;;;0.50;;
419;SDS011;42600;54.408;13.016;2024-02-21T08:59:03;4.80;;;0.73;;
419;SDS011;42600;54.408;13.016;2024-02-21T09:01:30;1.37;;;0.60;;
419;SDS011;42600;54.408;13.016;2024-02-21T09:03:56;1.43;;;0.93;;
419;SDS011;42600;54.408;13.016;2024-02-21T09:06:23;2.40;;;0.70;;
419;SDS011;42600;54.408;13.016;2024-02-21T09:08:49;1.33;;;0.80;;
419;SDS011;42600;54.408;13.016;2024-02-21T09:11:16;0.80;;;0.40;;
419;SDS011;42600;54.408;13.016;2024-02-21T09:13:43;1.60;;;0.43;;
419;SDS011;42600;54.408;13.016;2024-02-21T09:16:11;1.13;;;0.40;;
419;SDS011;42600;54.408;13.016;2024-02-21T09:18:37;2.80;;;0.87;;
419;SDS011;42600;54.408;13.016;2024-02-21T09:21:04;2.60;;;0.50;;
419;SDS011;42600;54.408;13.016;2024-02-21T09:23:30;0.80;;;0.40;;
419;SDS011;42600;54.408;13.016;2024-02-21T09:25:57;0.90;;;0.50;;
419;SDS011;42600;54.408;13.016;2024-02-21T09:28:25;0.93;;;0.63;;
419;SDS011;42600;54.408;13.016;2024-02-21T09:30:52;2.70;;;0.70;;
419;SDS011;42600;54.408;13.016;2024-02-21T09:33:20;5.47;;;1.73;;
419;SDS011;42600;54.408;13.016;2024-02-21T09:35:46;0.80;;;0.30;;
419;SDS011;42600;54.408;13.016;2024-02-21T09:38:13;1.37;;;0.50;;
419;SDS011;42600;54.408;13.016;2024-02-21T09:40:40;0.80;;;0.40;;
419;SDS011;42600;54.408;13.016;2024-02-21T09:43:07;1.17;;;0.40;;
419;SDS011;42600;54.408;13.016;2024-02-21T09:45:34;0.80;;;0.40;;
419;SDS011;42600;54.408;13.016;2024-02-21T09:48:13;0.80;;;0.30;;
419;SDS011;42600;54.408;13.016;2024-02-21T09:50:52;2.50;;;1.43;;
419;SDS011;42600;54.408;13.016;2024-02-21T09:53:20;1.73;;;0.50;;
419;SDS011;42600;54.408;13.016;2024-02-21T09:55:50;0.80;;;0.40;;
419;SDS011;42600;54.408;13.016;2024-02-21T09:58:17;0.80;;;0.30;;
419;SDS011;42600;54.408;13.016;2024-02-21T10:00:44;0.80;;;0.37;;
419;SDS011;42600;54.408;13.016;2024-02-21T10:03:11;1.00;;;0.73;;
419;SDS011;42600;54.408;13.016;2024-02-21T10:05:45;10.13;;;5.07;;
419;SDS011;42600;54.408;13.016;2024-02-21T10:08:15;0.93;;;0.63;;
419;SDS011;42600;54.408;13.016;2024-02-21T10:10:42;0.80;;;0.40;;
419;SDS011;42600;54.408;13.016;2024-02-21T10:13:09;2.07;;;0.63;;
419;SDS011;42600;54.408;13.016;2024-02-21T10:15:36;0.80;;;0.40;;
419;SDS011;42600;54.408;13.016;2024-02-21T10:18:03;0.90;;;0.50;;
419;SDS011;42600;54.408;13.016;2024-02-21T10:20:31;3.20;;;1.17;;
419;SDS011;42600;54.408;13.016;2024-02-21T10:23:03;2.40;;;0.70;;
419;SDS011;42600;54.408;13.016;2024-02-21T10:25:33;0.80;;;0.50;;
419;SDS011;42600;54.408;13.016;2024-02-21T10:28:00;1.30;;;0.80;;
419;SDS011;42600;54.408;13.016;2024-02-21T10:30:27;1.13;;;0.97;;
419;SDS011;42600;54.408;13.016;2024-02-21T10:32:54;2.40;;;0.77;;
419;SDS011;42600;54.408;13.016;2024-02-21T10:35:27;3.47;;;0.97;;
419;SDS011;42600;54.408;13.016;2024-02-21T10:37:54;1.20;;;0.67;;
419;SDS011;42600;54.408;13.016;2024-02-21T10:40:23;1.10;;;0.97;;
419;SDS011;42600;54.408;13.016;2024-02-21T10:42:51;0.80;;;0.40;;
419;SDS011;42600;54.408;13.016;2024-02-21T10:45:22;0.80;;;0.40;;
419;SDS011;42600;54.408;13.016;2024-02-21T10:47:55;1.30;;;0.70;;
419;SDS011;42600;54.408;13.016;2024-02-21T10:50:26;6.63;;;0.57;;
419;SDS011;42600;54.408;13.016;2024-02-21T10:53:00;5.80;;;0.80;;
419;SDS011;42600;54.408;13.016;2024-02-21T10:55:37;15.60;;;0.90;;
419;SDS011;42600;54.408;13.016;2024-02-21T10:58:07;1.00;;;0.60;;
419;SDS011;42600;54.408;13.016;2024-02-21T11:00:36;0.80;;;0.40;;
419;SDS011;42600;54.408;13.016;2024-02-21T11:03:03;6.33;;;2.17;;
419;SDS011;42600;54.408;13.016;2024-02-21T11:05:31;0.90;;;0.40;;
419;SDS011;42600;54.408;13.016;2024-02-21T11:07:58;0.90;;;0.50;;
419;SDS011;42600;54.408;13.016;2024-02-21T11:10:25;5.40;;;1.30;;
419;SDS011;42600;54.408;13.016;2024-02-21T11:12:54;0.87;;;0.47;;
419;SDS011;42600;54.408;13.016;2024-02-21T11:15:32;1.20;;;0.70;;
419;SDS011;42600;54.408;13.016;2024-02-21T11:17:58;1.00;;;0.50;;
419;SDS011;42600;54.408;13.016;2024-02-21T11:20:31;1.27;;;0.70;;
419;SDS011;42600;54.408;13.016;2024-02-21T11:22:59;19.53;;;2.40;;
419;SDS011;42600;54.408;13.016;2024-02-21T11:25:26;2.40;;;1.17;;
419;SDS011;42600;54.408;13.016;2024-02-21T11:28:00;1.40;;;0.43;;
419;SDS011;42600;54.408;13.016;2024-02-21T11:30:27;4.00;;;1.43;;
419;SDS011;42600;54.408;13.016;2024-02-21T11:32:59;1.00;;;0.50;;
419;SDS011;42600;54.408;13.016;2024-02-21T11:35:30;0.80;;;0.30;;
419;SDS011;42600;54.408;13.016;2024-02-21T11:38:07;3.13;;;0.93;;
419;SDS011;42600;54.408;13.016;2024-02-21T11:40:35;7.20;;;2.10;;
419;SDS011;42600;54.408;13.016;2024-02-21T11:43:03;16.83;;;1.83;;
419;SDS011;42600;54.408;13.016;2024-02-21T11:45:30;1.50;;;1.00;;
419;SDS011;42600;54.408;13.016;2024-02-21T11:47:57;3.07;;;1.10;;
419;SDS011;42600;54.408;13.016;2024-02-21T11:50:25;1.13;;;0.50;;
419;SDS011;42600;54.408;13.016;2024-02-21T11:52:53;0.80;;;0.40;;
419;SDS011;42600;54.408;13.016;2024-02-21T11:55:20;2.03;;;0.90;;
419;SDS011;42600;54.408;13.016;2024-02-21T11:57:47;2.20;;;1.93;;
419;SDS011;42600;54.408;13.016;2024-02-21T12:00:17;27.87;;;1.53;;
419;SDS011;42600;54.408;13.016;2024-02-21T12:02:45;1.00;;;0.97;;
419;SDS011;42600;54.408;13.016;2024-02-21T12:05:12;8.73;;;1.90;;
419;SDS011;42600;54.408;13.016;2024-02-21T12:07:39;1.37;;;0.70;;
419;SDS011;42600;54.408;13.016;2024-02-21T12:10:07;1.23;;;0.90;;
419;SDS011;42600;54.408;13.016;2024-02-21T12:12:34;0.90;;;0.50;;
419;SDS011;42600;54.408;13.016;2024-02-21T12:15:03;5.20;;;3.10;;
419;SDS011;42600;54.408;13.016;2024-02-21T12:17:32;1.10;;;0.57;;
419;SDS011;42600;54.408;13.016;2024-02-21T12:19:59;21.77;;;1.90;;
419;SDS011;42600;54.408;13.016;2024-02-21T12:22:26;7.03;;;1.23;;
419;SDS011;42600;54.408;13.016;2024-02-21T12:24:53;4.67;;;1.73;;
419;SDS011;42600;54.408;13.016;2024-02-21T12:27:19;1.73;;;0.60;;
419;SDS011;42600;54.408;13.016;2024-02-21T12:29:47;5.40;;;1.27;;
419;SDS011;42600;54.408;13.016;2024-02-21T12:32:14;2.03;;;1.07;;
419;SDS011;42600;54.408;13.016;2024-02-21T12:34:42;3.30;;;1.20;;
419;SDS011;42600;54.408;13.016;2024-02-21T12:37:10;1.07;;;0.60;;
419;SDS011;42600;54.408;13.016;2024-02-21T12:39:37;1.33;;;0.80;;
419;SDS011;42600;54.408;13.016;2024-02-21T12:42:04;19.77;;;2.47;;
419;SDS011;42600;54.408;13.016;2024-02-21T12:44:31;4.50;;;1.40;;
419;SDS011;42600;54.408;13.016;2024-02-21T12:46:59;0.80;;;0.30;;
419;SDS011;42600;54.408;13.016;2024-02-21T12:49:25;0.90;;;0.50;;
419;SDS011;42600;54.408;13.016;2024-02-21T12:51:55;1.00;;;0.73;;
419;SDS011;42600;54.408;13.016;2024-02-21T12:54:22;1.00;;;0.60;;
419;SDS011;42600;54.408;13.016;2024-02-21T12:56:49;1.17;;;0.47;;
419;SDS011;42600;54.408;13.016;2024-02-21T12:59:15;0.80;;;0.40;;
419;SDS011;42600;54.408;13.016;2024-02-21T13:01:42;3.83;;;0.73;;
419;SDS011;42600;54.408;13.016;2024-02-21T13:04:09;5.60;;;0.87;;
419;SDS011;42600;54.408;13.016;2024-02-21T13:06:36;0.90;;;0.43;;
419;SDS011;42600;54.408;13.016;2024-02-21T13:09:04;1.00;;;0.60;;
419;SDS011;42600;54.408;13.016;2024-02-21T13:11:33;0.80;;;0.37;;
419;SDS011;42600;54.408;13.016;2024-02-21T13:14:00;2.23;;;0.53;;
419;SDS011;42600;54.408;13.016;2024-02-21T13:16:27;0.80;;;0.37;;
419;SDS011;42600;54.408;13.016;2024-02-21T13:18:53;3.07;;;0.87;;
419;SDS011;42600;54.408;13.016;2024-02-21T13:21:20;5.60;;;1.40;;
419;SDS011;42600;54.408;13.016;2024-02-21T13:23:47;0.90;;;0.53;;
419;SDS011;42600;54.408;13.016;2024-02-21T13:26:16;0.90;;;0.40;;
419;SDS011;42600;54.408;13.016;2024-02-21T13:28:42;2.30;;;0.67;;
419;SDS011;42600;54.408;13.016;2024-02-21T13:31:09;1.77;;;0.80;;
419;SDS011;42600;54.408;13.016;2024-02-21T13:33:36;1.17;;;0.40;;
419;SDS011;42600;54.408;13.016;2024-02-21T13:36:03;1.63;;;1.60;;
419;SDS011;42600;54.408;13.016;2024-02-21T13:38:30;1.63;;;0.97;;
419;SDS011;42600;54.408;13.016;2024-02-21T13:40:57;2.63;;;0.70;;
419;SDS011;42600;54.408;13.016;2024-02-21T13:43:26;1.37;;;0.90;;
419;SDS011;42600;54.408;13.016;2024-02-21T13:45:55;0.90;;;0.50;;
419;SDS011;42600;54.408;13.016;2024-02-21T13:48:23;0.80;;;0.40;;
419;SDS011;42600;54.408;13.016;2024-02-21T13:50:49;2.17;;;1.30;;
419;SDS011;42600;54.408;13.016;2024-02-21T13:53:16;1.23;;;1.00;;
419;SDS011;42600;54.408;13.016;2024-02-21T13:55:43;1.10;;;0.87;;
419;SDS011;42600;54.408;13.016;2024-02-21T13:58:10;0.90;;;0.50;;
419;SDS011;42600;54.408;13.016;2024-02-21T14:00:38;8.10;;;1.10;;
419;SDS011;42600;54.408;13.016;2024-02-21T14:03:04;2.03;;;0.67;;
419;SDS011;42600;54.408;13.016;2024-02-21T14:05:31;1.10;;;0.60;;
419;SDS011;42600;54.408;13.016;2024-02-21T14:07:58;0.90;;;0.50;;
419;SDS011;42600;54.408;13.016;2024-02-21T14:10:24;1.20;;;0.80;;
419;SDS011;42600;54.408;13.016;2024-02-21T14:12:51;0.93;;;0.53;;
419;SDS011;42600;54.408;13.016;2024-02-21T14:15:18;4.60;;;1.37;;
419;SDS011;42600;54.408;13.016;2024-02-21T14:17:46;4.53;;;0.70;;
419;SDS011;42600;54.408;13.016;2024-02-21T14:20:12;3.53;;;2.00;;
419;SDS011;42600;54.408;13.016;2024-02-21T14:22:40;5.83;;;0.90;;
419;SDS011;42600;54.408;13.016;2024-02-21T14:25:07;0.90;;;0.40;;
419;SDS011;42600;54.408;13.016;2024-02-21T14:27:34;5.43;;;2.00;;
419;SDS011;42600;54.408;13.016;2024-02-21T14:30:01;1.00;;;0.60;;
419;SDS011;42600;54.408;13.016;2024-02-21T14:32:28;5.00;;;1.30;;
419;SDS011;42600;54.408;13.016;2024-02-21T14:34:56;9.30;;;1.57;;
419;SDS011;42600;54.408;13.016;2024-02-21T14:37:23;1.37;;;0.90;;
419;SDS011;42600;54.408;13.016;2024-02-21T14:39:49;1.20;;;0.83;;
419;SDS011;42600;54.408;13.016;2024-02-21T14:42:16;0.90;;;0.47;;
419;SDS011;42600;54.408;13.016;2024-02-21T14:44:43;1.20;;;0.77;;
419;SDS011;42600;54.408;13.016;2024-02-21T14:47:10;7.90;;;1.30;;
419;SDS011;42600;54.408;13.016;2024-02-21T14:49:36;0.90;;;0.50;;
419;SDS011;42600;54.408;13.016;2024-02-21T14:52:04;1.40;;;1.17;;
419;SDS011;42600;54.408;13.016;2024-02-21T14:54:31;1.83;;;1.00;;
419;SDS011;42600;54.408;13.016;2024-02-21T14:56:59;3.20;;;1.23;;
419;SDS011;42600;54.408;13.016;2024-02-21T14:59:26;1.03;;;0.73;;